x

Orange Beach - 44 Nm Se Of Mobile, Al (42012) Wave Buoy

11:50am - Wed 1st Oct 2014 All times are CDT. -5 hours from GMT.

  • Sig Wave height 1.3ft
  • Swell Direction
  • Peak Period 3s
  • Average Period 3s
  • Wind
    11mph, 13mph gusts
  • Sea Temp 82°f
  • Air Temp 79°f
  • Sea Pressure 1015mb
  • Orange Beach - 44 Nm Se Of Mobile, Al
  • Orange Beach - 44 Nm Se Of Mobile, Al

More Historic Weather Station data

Upgrade to MSW Pro to gain access to the past 30 days of data for over 8000 Wavebouys and Weather Stations around the globe.

Join Pro

Comparision Forecast

View Surf forecast
   
Wed 10/01 11:50am 1.3ft 3s 3s 11 13 mph 1015mb 82f 79f
10:50am 1.3ft 3s 3s 13 16 mph 1015.2mb 82f 78f
9:50am 1ft 3s 3s 13 16 mph 1014.6mb 82f 77f
8:50am 1ft 4s 3s 9 11 mph 1014.2mb 82f 78f
7:50am 1ft 3s 3s 2 4 mph 1013.8mb 81f 80f
6:50am 1ft 3s 3s 2 4 mph 1013.3mb 81f 78f
5:50am 1ft 4s 3s 2
mph
1012.9mb 81f 78f
4:50am 1.3ft 4s 3s 4 7 mph 1012.4mb 81f 78f
3:50am 1.3ft 4s 3s 7 9 mph 1012.1mb 82f 78f
2:50am 1.3ft 3s 3s 9 11 mph 1012mb 82f 78f
1:50am 1.3ft 3s 3s 9 11 mph 1012.2mb 81f 78f
12:50am 1.3ft 4s 3s 11 13 mph 1012mb 82f 78f
Tue 09/30 11:50pm 1.3ft 3s 3s 9 13 mph 1012.2mb 82f 78f
10:50pm 1.6ft 3s 3s 9 11 mph 1012.4mb 82f 78f
9:50pm 1.3ft 3s 3s 13 16 mph 1012.1mb 82f 78f
8:50pm 1.3ft 5s 3s 13 16 mph 1012.2mb 82f 79f
7:50pm 1.3ft 5s 3s 11 13 mph 1011.8mb 82f 79f
6:50pm 1.3ft 4s 4s 9 13 mph 1011.4mb 82f 79f
5:50pm 1.3ft 4s 4s 7 9 mph 1011.3mb 82f 78f
4:50pm 1.3ft 4s 4s 7 9 mph 1011.1mb 82f 78f
3:50pm 1.6ft 5s 4s 7 11 mph 1011mb 82f 78f
2:50pm 1.6ft 5s 4s 9 11 mph 1011.4mb 82f 78f
1:50pm 1.6ft 5s 4s 9 11 mph 1012.1mb 82f 77f
12:50pm 2ft 4s 4s 9 11 mph 1012.6mb 82f 77f
11:50am 2ft 5s 4s 13 16 mph 1012.9mb 82f 76f
10:50am 2ft 4s 3s 13 16 mph 1013.1mb 82f 76f
9:50am 2ft 5s 3s 18 20 mph 1012.8mb 82f 76f
8:50am 2.5ft 4s 4s 16 20 mph 1012.4mb 82f 76f
7:50am 2.5ft 4s 4s 16 18 mph 1012.1mb 82f 76f
6:50am 2.5ft 5s 4s 13 16 mph 1011.8mb 82f 77f
5:50am 2.5ft 5s 4s 13 16 mph 1011.2mb 82f 77f
4:50am 2.5ft 5s 4s 16 18 mph 1010.8mb 82f 77f
3:50am 2.5ft 4s 4s 13 16 mph 1010.7mb 82f 77f
2:50am 2.5ft 4s 4s 16 18 mph 1010.5mb 82f 78f
1:50am 2.5ft 4s 4s 16 20 mph 1010.6mb 82f 78f
12:50am 2.5ft 5s 4s 16 18 mph 1010.7mb 82f 78f
Mon 09/29 11:50pm 1.6ft 5s 3s 16 18 mph 1011.2mb 82f 78f
10:50pm 1.6ft 5s 4s 13 16 mph 1011.3mb 82f 78f
9:50pm 1.6ft 5s 4s 11 13 mph 1011.4mb 82f 79f
8:50pm 2ft 5s 4s 7 11 mph 1011.3mb 82f 78f
7:50pm 2ft 5s 4s 11 13 mph 1011.1mb 82f 78f
6:50pm 2ft 5s 4s 16
mph
1010.8mb 82f 78f
5:50pm 2ft 5s 4s 11 13 mph 1010.3mb 82f 80f
4:50pm 2ft 5s 4s 9 11 mph 1010mb 82f 79f
3:50pm 2ft 5s 4s 11 13 mph 1010.3mb 82f 79f
2:50pm 2.5ft 5s 4s 11 13 mph 1010.4mb 82f 79f
1:50pm 2.5ft 5s 4s 16 18 mph 1010.8mb 82f 78f
12:50pm 2.5ft 5s 4s 18 20 mph 1011.4mb 82f 77f
11:50am 3.5ft 5s 4s 20 25 mph 1011.8mb 82f 76f
10:50am 3.5ft 6s 4s 18 22 mph 1011.9mb 82f 77f
9:50am 3.5ft 6s 4s 18 20 mph 1011.7mb 82f 77f
8:50am 3.5ft 6s 4s 16 20 mph 1011.8mb 82f 77f
7:50am 3.5ft 5s 4s 16 18 mph 1011.8mb 82f 76f
6:50am 4ft 5s 4s 16 20 mph 1011.6mb 82f 76f
5:50am 4.5ft 5s 4s 16 20 mph 1011.8mb 82f 75f
4:50am 3.5ft 5s 4s 18 25 mph 1010.7mb 82f 77f
3:50am 4ft 5s 4s 18 20 mph 1011mb 82f 79f
2:50am 4ft 6s 4s 20 25 mph 1011.4mb 82f 78f
1:50am 3.5ft 4s 4s 20 25 mph 1011.8mb 82f 78f
12:50am 3.5ft 4s 4s 18 22 mph 1012.3mb 82f 79f
Sun 09/28 11:50pm 3.5ft 5s 4s 22 25 mph 1012.6mb 82f 78f
10:50pm 3.5ft 6s 4s 20 25 mph 1013.1mb 82f 78f
9:50pm 3.5ft 6s 4s 22 25 mph 1013.4mb 82f 78f
8:50pm 3.5ft 6s 4s 20 25 mph 1014mb 82f 78f
7:50pm 3ft 6s 4s 16 20 mph 1013.9mb 82f 78f
6:50pm 3.5ft 6s 4s 11 16 mph 1013.7mb 82f 79f
5:50pm 3.5ft 6s 4s 11 13 mph 1013.6mb 82f 79f
4:50pm 3.5ft 6s 4s 11 13 mph 1013.6mb 82f 79f
3:50pm 4ft 6s 4s 16 18 mph 1013.9mb 82f 78f
2:50pm 3.5ft 6s 4s 13 18 mph 1014.2mb 82f 76f
1:50pm 4ft 6s 4s 16 18 mph 1014.8mb 82f 78f
12:50pm 4ft 6s 4s 18 22 mph 1015.3mb 82f 78f
11:50am 4.5ft 6s 5s 13 16 mph 1016.1mb 82f 78f
10:50am 4.5ft 6s 4s 20 22 mph 1015.9mb 82f 77f
9:50am 4.5ft 6s 4s 20 25 mph 1015.7mb 82f 77f
8:50am 4.5ft 6s 4s 18 20 mph 1015.4mb 82f 77f
7:50am 5ft 6s 4s 25 29 mph 1014.8mb 82f 77f
6:50am 5ft 6s 5s 22 27 mph 1014.6mb 82f 78f
5:50am 5ft 6s 5s 20 25 mph 1014.4mb 82f 79f
4:50am 5ft 6s 5s 20 25 mph 1014.1mb 82f 79f
3:50am 5ft 6s 5s 22 25 mph 1013.9mb 82f 79f
2:50am 5ft 6s 5s 22 27 mph 1014.3mb 82f 79f
1:50am 5ft 6s 5s 25 27 mph 1014.8mb 82f 78f
12:50am 5ft 6s 5s 25 29 mph 1014.9mb 82f 79f
Sat 09/27 11:50pm 5ft 6s 5s 22 27 mph 1015.5mb 82f 79f
10:50pm 5ft 6s 5s 22 27 mph 1015.8mb 83f 79f
9:50pm 5ft 6s 5s 22 27 mph 1015.8mb 83f 79f
8:50pm 5ft 6s 5s 22 27 mph 1015.5mb 83f 79f
7:50pm 5ft 7s 5s 20 25 mph 1014.8mb 83f 79f
6:50pm 4.5ft 6s 5s 20 25 mph 1014.6mb 83f 79f
5:50pm 5ft 7s 5s 22 25 mph 1014.6mb 83f 79f